Time;durP1;ratioP1;P1;durP2;ratioP2;P2;SDS_P1;SDS_P2;PMS_P1;PMS_P2;Temp;Humidity;BMP_temperature;BMP_pressure;BME280_temperature;BME280_humidity;BME280_pressure;Samples;Min_cycle;Max_cycle;Signal;HPM_P1;HPM_P2
2022/06/16 00:02:21;;;;;;;4.20;3.37;;;18.70;98.50;;;19.68;98.46;98123.38;4995109;28;20490;-77
2022/06/16 00:04:50;;;;;;;5.20;3.00;;;18.70;98.90;;;19.64;98.44;98116.94;4995105;28;20486;-77
2022/06/16 00:07:23;;;;;;;4.40;3.13;;;18.60;98.50;;;19.57;98.56;98117.91;4995056;28;20484;-77
2022/06/16 00:09:53;;;;;;;3.80;3.40;;;18.60;98.50;;;19.52;99.54;98117.84;4993082;28;20455;-78
2022/06/16 00:12:23;;;;;;;5.00;4.10;;;18.50;98.70;;;19.50;98.92;98117.28;4999672;28;20459;-77
2022/06/16 00:14:52;;;;;;;6.90;3.50;;;18.60;98.70;;;19.45;99.37;98114.53;5001500;28;20539;-77
2022/06/16 00:17:21;;;;;;;5.40;3.53;;;18.50;98.70;;;19.41;98.99;98115.25;5000631;28;20496;-77
2022/06/16 00:19:55;;;;;;;6.43;3.40;;;18.50;98.60;;;19.42;99.40;98115.03;4998879;28;20967;-77
2022/06/16 00:22:26;;;;;;;6.93;4.20;;;18.40;98.80;;;19.40;98.54;98110.97;5001283;28;20493;-77
2022/06/16 00:24:57;;;;;;;3.63;2.97;;;18.40;98.60;;;19.35;99.04;98111.69;5001184;28;20462;-77
2022/06/16 00:27:29;;;;;;;5.27;3.27;;;18.40;98.80;;;19.26;100.00;98107.84;5000645;28;20466;-77
2022/06/16 00:29:59;;;;;;;4.07;3.13;;;18.40;98.80;;;19.16;100.00;98104.22;5001865;28;20470;-77
2022/06/16 00:32:28;;;;;;;5.00;3.40;;;18.20;98.90;;;19.11;100.00;98110.25;4998896;28;20462;-78
2022/06/16 00:34:58;;;;;;;7.23;3.20;;;18.30;98.70;;;19.14;100.00;98101.81;5002660;28;20522;-77
2022/06/16 00:37:29;;;;;;;3.90;3.10;;;18.30;98.60;;;19.05;100.00;98092.66;5000507;28;20475;-77
2022/06/16 00:39:59;;;;;;;5.07;3.30;;;18.20;98.80;;;18.99;100.00;98097.03;4999280;28;20465;-77
2022/06/16 00:42:30;;;;;;;10.90;3.30;;;18.10;98.90;;;18.94;100.00;98099.63;5000397;28;20481;-77
2022/06/16 00:45:00;;;;;;;4.70;3.47;;;18.00;98.80;;;18.89;100.00;98106.66;4997957;28;20566;-77
2022/06/16 00:47:31;;;;;;;4.77;3.17;;;18.10;98.80;;;18.86;100.00;98107.97;4998436;28;20470;-77
2022/06/16 00:50:07;;;;;;;6.30;3.67;;;17.90;99.10;;;18.79;100.00;98112.59;4998349;28;20474;-77
2022/06/16 00:52:38;;;;;;;6.07;3.87;;;17.90;99.20;;;18.78;100.00;98115.50;4998865;28;21059;-77
2022/06/16 00:55:16;;;;;;;5.50;3.03;;;17.90;99.20;;;18.75;100.00;98110.66;4997566;28;20494;-77
2022/06/16 00:57:51;;;;;;;11.23;4.07;;;17.80;99.40;;;18.79;100.00;98106.50;5000584;28;20463;-77
2022/06/16 01:00:24;;;;;;;4.30;3.80;;;17.80;99.10;;;18.72;100.00;98104.00;4997252;28;20462;-77
2022/06/16 01:02:54;;;;;;;8.73;3.20;;;17.70;99.40;;;18.67;100.00;98108.41;5004139;28;20466;-77
2022/06/16 01:05:23;;;;;;;8.47;3.20;;;17.70;99.30;;;18.70;100.00;98107.94;4999885;28;20525;-77
2022/06/16 01:07:58;;;;;;;5.53;3.50;;;17.70;99.30;;;18.70;100.00;98102.63;5003213;28;20462;-77
2022/06/16 01:10:40;;;;;;;6.07;3.50;;;17.80;99.10;;;18.63;100.00;98104.63;4996947;28;20522;-77
2022/06/16 01:13:43;;;;;;;6.40;3.57;;;17.70;99.20;;;18.52;100.00;98104.44;5001746;28;20582;-77
2022/06/16 01:16:35;;;;;;;3.53;2.87;;;17.70;99.20;;;18.47;100.00;98114.88;4999105;28;20494;-77
2022/06/16 01:19:32;;;;;;;6.03;3.20;;;17.60;99.40;;;18.45;100.00;98111.69;4999604;28;20462;-77
2022/06/16 01:22:12;;;;;;;5.83;3.03;;;17.50;99.60;;;18.40;100.00;98103.63;4997918;28;21130;-77
2022/06/16 01:25:02;;;;;;;4.63;3.70;;;17.50;99.40;;;18.41;100.00;98109.72;4999756;28;20487;-77
2022/06/16 01:28:03;;;;;;;5.50;3.43;;;17.40;99.60;;;18.32;100.00;98111.13;4996509;28;20470;-77
2022/06/16 01:30:46;;;;;;;7.30;3.40;;;17.40;99.60;;;18.32;100.00;98101.38;4996981;28;20516;-77
2022/06/16 01:33:28;;;;;;;4.47;3.10;;;17.40;99.60;;;18.30;100.00;98103.41;4999213;28;20460;-77
2022/06/16 01:36:08;;;;;;;5.20;3.67;;;17.30;99.70;;;18.27;100.00;98105.72;4998859;28;20557;-77
2022/06/16 01:38:48;;;;;;;4.77;3.03;;;17.30;99.90;;;18.21;100.00;98110.13;4996365;28;21326;-77
2022/06/16 01:41:24;;;;;;;4.47;3.23;;;17.30;99.50;;;18.14;100.00;98113.94;4996620;28;20468;-77
2022/06/16 01:44:03;;;;;;;5.23;3.27;;;17.30;99.70;;;18.07;100.00;98109.59;4996730;28;21045;-77
2022/06/16 01:46:38;;;;;;;7.00;2.90;;;17.20;99.80;;;18.04;100.00;98106.59;4995333;28;20885;-77
2022/06/16 01:49:16;;;;;;;6.20;3.00;;;17.10;99.70;;;17.98;100.00;98110.16;4997860;28;20458;-77
2022/06/16 01:51:53;;;;;;;4.00;3.27;;;17.10;99.70;;;17.92;100.00;98119.03;4997246;28;20462;-77
2022/06/16 01:54:30;;;;;;;5.70;3.20;;;17.00;99.90;;;17.96;100.00;98133.41;5003155;28;20461;-77
2022/06/16 01:57:07;;;;;;;4.57;2.90;;;17.00;99.90;;;17.93;100.00;98118.81;5000009;28;21222;-77
2022/06/16 01:59:43;;;;;;;5.17;3.13;;;17.00;99.90;;;17.84;100.00;98136.06;4998247;28;20463;-77
2022/06/16 02:02:20;;;;;;;3.97;2.70;;;16.90;99.90;;;17.90;100.00;98129.06;4995910;28;20470;-77
2022/06/16 02:04:58;;;;;;;4.17;2.93;;;16.90;99.90;;;17.91;100.00;98128.81;4997781;28;20498;-77
2022/06/16 02:07:36;;;;;;;4.27;3.03;;;16.90;99.90;;;17.89;100.00;98135.38;4999934;28;20456;-77
2022/06/16 02:10:13;;;;;;;8.03;3.17;;;17.00;99.80;;;17.86;100.00;98138.47;4998192;28;20503;-76
2022/06/16 02:12:56;;;;;;;4.40;3.30;;;17.00;99.70;;;17.81;100.00;98133.88;4999021;28;20507;-77
2022/06/16 02:15:41;;;;;;;4.53;3.33;;;16.90;99.90;;;17.70;100.00;98133.91;4998429;28;20487;-77
2022/06/16 02:18:16;;;;;;;8.83;3.50;;;16.80;99.90;;;17.71;100.00;98135.47;4997322;28;20474;-77
2022/06/16 02:20:56;;;;;;;4.93;3.60;;;16.80;99.90;;;17.65;100.00;98131.13;4999314;28;20460;-77
2022/06/16 02:23:27;;;;;;;4.03;3.47;;;16.70;99.90;;;17.52;100.00;98138.22;4997552;28;20553;-77
2022/06/16 02:26:00;;;;;;;9.43;3.13;;;16.70;99.90;;;17.47;100.00;98135.44;4998708;28;20829;-77
2022/06/16 02:28:30;;;;;;;3.67;2.90;;;16.50;99.90;;;17.53;100.00;98133.72;5000291;28;20980;-77
2022/06/16 02:31:21;;;;;;;7.30;3.50;;;16.50;99.90;;;17.57;100.00;98129.63;4999223;28;20471;-77
2022/06/16 02:34:08;;;;;;;5.20;3.30;;;16.50;99.90;;;17.49;100.00;98133.38;4997360;28;20473;-77
2022/06/16 02:37:24;;;;;;;4.20;2.80;;;16.50;99.90;;;17.38;100.00;98136.03;4997922;28;20487;-77
2022/06/16 02:40:19;;;;;;;3.57;3.03;;;16.40;99.90;;;17.33;100.00;98134.06;4996485;28;20471;-77
2022/06/16 02:43:06;;;;;;;7.63;3.23;;;16.50;99.90;;;17.33;100.00;98131.41;4997557;28;20510;-77
2022/06/16 02:45:45;;;;;;;6.27;3.30;;;16.40;99.90;;;17.29;100.00;98129.44;4996958;28;20469;-77
2022/06/16 02:48:21;;;;;;;6.63;3.70;;;16.50;99.90;;;17.29;100.00;98138.19;4998080;28;20465;-77
2022/06/16 02:51:05;;;;;;;5.40;3.00;;;16.40;99.90;;;17.24;100.00;98138.06;4999870;28;20992;-77
2022/06/16 02:53:52;;;;;;;3.73;2.90;;;16.40;99.90;;;17.18;100.00;98130.25;4997081;28;21542;-77
2022/06/16 02:56:34;;;;;;;4.43;3.40;;;16.30;99.90;;;17.21;100.00;98137.72;5000933;28;20495;-77
2022/06/16 02:59:14;;;;;;;5.47;3.53;;;16.20;99.90;;;17.19;100.00;98143.22;4997994;28;20821;-77
2022/06/16 03:01:44;;;;;;;4.47;2.80;;;16.20;99.90;;;17.15;100.00;98142.06;4997210;28;20521;-77
2022/06/16 03:04:17;;;;;;;4.67;3.00;;;16.30;99.90;;;17.13;100.00;98146.78;4997328;28;20464;-77
2022/06/16 03:06:48;;;;;;;4.27;3.10;;;16.30;99.90;;;17.06;100.00;98151.34;4996214;28;20529;-78
2022/06/16 03:09:18;;;;;;;4.10;3.10;;;16.20;99.90;;;17.05;100.00;98152.38;4998543;28;20467;-77
2022/06/16 03:11:49;;;;;;;5.60;3.00;;;16.20;99.90;;;16.99;100.00;98148.00;4997784;28;20503;-77
2022/06/16 03:14:20;;;;;;;9.90;3.17;;;16.20;99.90;;;16.92;100.00;98145.44;4998271;28;20522;-77
2022/06/16 03:16:50;;;;;;;4.27;2.63;;;16.10;99.90;;;16.92;100.00;98137.53;4995963;28;20491;-77
2022/06/16 03:19:22;;;;;;;3.77;3.07;;;16.10;99.90;;;16.94;100.00;98139.94;4997301;28;20507;-77
2022/06/16 03:21:56;;;;;;;7.60;3.40;;;16.20;99.90;;;16.87;100.00;98137.38;4994200;28;20471;-77
2022/06/16 03:24:26;;;;;;;3.20;2.47;;;16.10;99.90;;;16.88;100.00;98146.13;4996131;28;21202;-77
2022/06/16 03:26:56;;;;;;;7.50;2.80;;;16.10;99.90;;;16.78;100.00;98145.84;4995080;28;20491;-77
2022/06/16 03:29:26;;;;;;;5.83;3.50;;;16.00;99.90;;;16.77;100.00;98144.22;4994856;28;20458;-77
2022/06/16 03:31:56;;;;;;;5.50;3.30;;;15.90;99.90;;;16.71;100.00;98143.28;4993481;28;20471;-77
2022/06/16 03:34:27;;;;;;;6.47;2.97;;;15.90;99.90;;;16.72;100.00;98141.47;4996316;28;20578;-77
2022/06/16 03:36:58;;;;;;;4.43;3.00;;;15.90;99.90;;;16.69;100.00;98140.09;4994846;28;20488;-77
2022/06/16 03:39:28;;;;;;;4.27;3.23;;;15.90;99.90;;;16.59;100.00;98142.47;4995931;28;20933;-77
2022/06/16 03:41:57;;;;;;;4.53;3.00;;;15.80;99.90;;;16.64;100.00;98149.69;4995439;28;20471;-77
2022/06/16 03:44:28;;;;;;;8.00;3.30;;;15.80;99.90;;;16.63;100.00;98148.06;4998258;28;20821;-77
2022/06/16 03:47:00;;;;;;;3.50;2.70;;;15.70;99.90;;;16.62;100.00;98157.03;4998211;28;20468;-77
2022/06/16 03:49:29;;;;;;;15.23;3.47;;;15.70;99.90;;;16.68;100.00;98156.16;4998166;28;20463;-77
2022/06/16 03:52:01;;;;;;;8.40;3.40;;;15.70;99.90;;;16.72;100.00;98162.59;4997834;28;20943;-77
2022/06/16 03:54:31;;;;;;;4.00;3.03;;;15.80;99.90;;;16.70;100.00;98167.28;4999804;28;20705;-77
2022/06/16 03:57:03;;;;;;;5.50;3.13;;;15.70;99.90;;;16.63;100.00;98163.91;4999903;28;20494;-77
2022/06/16 03:59:33;;;;;;;5.33;3.37;;;15.70;99.90;;;16.57;100.00;98173.53;4999848;28;21288;-77
2022/06/16 04:02:02;;;;;;;6.03;2.87;;;15.70;99.90;;;16.63;100.00;98177.13;4998151;28;20490;-77
2022/06/16 04:04:32;;;;;;;10.40;3.10;;;15.70;99.90;;;16.66;100.00;98172.19;5000470;28;20486;-77
2022/06/16 04:07:04;;;;;;;9.40;2.80;;;15.80;99.90;;;16.66;100.00;98169.56;4999114;28;20876;-77
2022/06/16 04:09:33;;;;;;;14.70;3.63;;;15.70;99.90;;;16.71;100.00;98171.53;4997855;28;21041;-77
2022/06/16 04:12:04;;;;;;;6.90;3.33;;;15.70;99.90;;;16.71;100.00;98176.81;4999816;28;20498;-77
2022/06/16 04:14:34;;;;;;;3.73;2.67;;;15.70;99.90;;;16.69;100.00;98174.41;5001949;28;21024;-77
2022/06/16 04:17:04;;;;;;;4.03;2.80;;;15.70;99.90;;;16.70;100.00;98181.28;4998584;28;20499;-77
2022/06/16 04:19:33;;;;;;;4.80;3.20;;;15.70;99.90;;;16.70;100.00;98175.19;5001263;28;20463;-77
2022/06/16 04:22:05;;;;;;;3.37;2.63;;;15.70;99.90;;;16.68;100.00;98178.06;4998534;28;20502;-77
2022/06/16 04:24:35;;;;;;;3.97;2.87;;;15.80;99.90;;;16.69;100.00;98178.88;4998633;28;20462;-77
2022/06/16 04:27:05;;;;;;;3.40;3.00;;;15.70;99.90;;;16.70;100.00;98177.84;4998325;28;20497;-77
2022/06/16 04:29:35;;;;;;;3.43;3.10;;;15.80;99.90;;;16.68;100.00;98172.78;4999271;28;20886;-77
2022/06/16 04:32:06;;;;;;;6.67;3.57;;;15.80;99.90;;;16.71;100.00;98176.81;4997473;28;20470;-77
2022/06/16 04:34:37;;;;;;;5.80;3.37;;;15.80;99.90;;;16.76;100.00;98176.97;4999369;28;20454;-77
2022/06/16 04:37:07;;;;;;;5.00;3.13;;;15.80;99.90;;;16.78;100.00;98188.91;4997307;28;20479;-78
2022/06/16 04:39:38;;;;;;;8.20;3.60;;;15.80;99.90;;;16.81;100.00;98188.47;5003130;28;21326;-82
2022/06/16 04:42:08;;;;;;;9.27;3.93;;;15.80;99.90;;;16.85;100.00;98202.84;4999137;28;20549;-77
2022/06/16 04:44:39;;;;;;;5.60;3.30;;;15.90;99.90;;;16.84;100.00;98203.06;4998737;28;20462;-77
2022/06/16 04:47:09;;;;;;;4.00;3.33;;;15.90;99.90;;;16.86;100.00;98203.66;4995628;28;20467;-77
2022/06/16 04:49:38;;;;;;;4.43;3.20;;;15.90;99.90;;;16.91;100.00;98203.78;5000886;28;21114;-78
2022/06/16 04:52:11;;;;;;;4.67;3.50;;;15.90;99.90;;;16.96;100.00;98201.28;4998997;28;20562;-77
2022/06/16 04:54:44;;;;;;;4.80;3.27;;;15.90;99.90;;;16.97;100.00;98213.47;4996554;28;20455;-78
2022/06/16 04:57:16;;;;;;;4.27;2.90;;;16.00;99.90;;;17.00;100.00;98215.66;4996512;28;20502;-78
2022/06/16 04:59:46;;;;;;;5.67;3.57;;;16.00;99.90;;;17.06;100.00;98212.13;4996689;28;20475;-77
2022/06/16 05:02:27;;;;;;;4.80;3.60;;;16.00;99.90;;;17.08;100.00;98217.97;4995931;28;20478;-82
2022/06/16 05:04:58;;;;;;;6.67;4.20;;;16.10;99.90;;;17.11;100.00;98218.34;4999073;28;21068;-78
2022/06/16 05:07:28;;;;;;;4.80;3.73;;;16.10;99.90;;;17.15;100.00;98216.06;4995630;28;20550;-77
2022/06/16 05:09:58;;;;;;;11.13;3.23;;;16.20;99.90;;;17.19;100.00;98227.78;5000935;28;20474;-78
2022/06/16 05:12:29;;;;;;;5.57;3.70;;;16.30;99.90;;;17.24;100.00;98225.28;5003223;28;20945;-77
2022/06/16 05:14:58;;;;;;;3.90;3.17;;;16.30;99.90;;;17.28;100.00;98228.28;5001855;28;20462;-77
2022/06/16 05:17:29;;;;;;;3.90;3.17;;;16.30;99.90;;;17.33;100.00;98237.16;5001521;28;21082;-77
2022/06/16 05:19:58;;;;;;;5.10;3.50;;;16.40;99.90;;;17.35;100.00;98231.66;4999608;28;20830;-78
2022/06/16 05:22:30;;;;;;;3.93;3.00;;;16.50;99.90;;;17.39;100.00;98230.19;5000922;28;20463;-78
2022/06/16 05:25:00;;;;;;;5.10;2.93;;;16.50;99.90;;;17.42;100.00;98241.06;5003013;28;20522;-77
2022/06/16 05:27:29;;;;;;;4.47;3.17;;;16.50;99.90;;;17.46;100.00;98239.59;4997371;28;20483;-78
2022/06/16 05:29:58;;;;;;;52.87;25.93;;;16.50;99.90;;;17.50;100.00;98234.66;4999731;28;20466;-77
2022/06/16 05:32:28;;;;;;;4.47;3.30;;;16.50;99.90;;;17.54;100.00;98241.13;4996701;28;20459;-78
2022/06/16 05:34:57;;;;;;;6.53;3.80;;;16.60;99.90;;;17.58;100.00;98245.78;5000057;28;20502;-78
2022/06/16 05:37:27;;;;;;;8.60;5.07;;;16.70;99.90;;;17.61;100.00;98247.16;4998222;28;20579;-78
2022/06/16 05:39:58;;;;;;;4.00;3.23;;;16.70;99.90;;;17.64;100.00;98243.22;5000048;28;20565;-78
2022/06/16 05:42:28;;;;;;;4.30;3.17;;;16.70;99.90;;;17.71;100.00;98247.41;4997590;28;20463;-78
2022/06/16 05:44:59;;;;;;;4.10;3.07;;;16.70;99.90;;;17.76;100.00;98257.31;4995323;28;20475;-78
2022/06/16 05:47:30;;;;;;;2.83;2.50;;;16.80;99.90;;;17.80;100.00;98261.13;4997711;28;20470;-78
2022/06/16 05:50:00;;;;;;;6.07;3.60;;;16.80;99.90;;;17.83;100.00;98269.41;4998124;28;20547;-77
2022/06/16 05:52:31;;;;;;;8.53;3.70;;;16.80;99.90;;;17.87;100.00;98261.81;4996855;28;20953;-83
2022/06/16 05:55:03;;;;;;;10.40;6.27;;;16.90;99.90;;;17.93;100.00;98268.84;4997613;28;20912;-77
2022/06/16 05:57:38;;;;;;;5.93;3.37;;;16.90;99.90;;;17.98;100.00;98271.59;4998945;28;20490;-77
2022/06/16 06:00:09;;;;;;;3.53;3.00;;;17.00;99.90;;;18.02;100.00;98270.09;4996495;28;20464;-77
2022/06/16 06:02:38;;;;;;;6.50;2.77;;;17.00;99.90;;;18.06;100.00;98266.78;4997619;28;20839;-76
2022/06/16 06:05:11;;;;;;;3.33;3.00;;;17.10;99.90;;;18.11;100.00;98274.03;4995369;28;20510;-77
2022/06/16 06:18:54;;;;;;;5.70;3.77;;;17.30;99.90;;;18.39;100.00;98291.88;4996140;28;20519;-77
2022/06/16 06:24:21;;;;;;;4.63;3.00;;;17.40;99.90;;;18.50;100.00;98294.53;4977281;28;20986;-78
2022/06/16 06:26:52;;;;;;;6.13;2.90;;;17.50;99.90;;;18.54;100.00;98295.69;4997763;28;20490;-77
2022/06/16 06:29:23;;;;;;;4.40;3.10;;;17.50;99.90;;;18.60;100.00;98294.75;4995114;28;20492;-77
2022/06/16 06:31:53;;;;;;;6.60;3.00;;;17.60;99.90;;;18.68;100.00;98298.09;4997881;28;20472;-78
2022/06/16 06:34:23;;;;;;;5.87;3.80;;;17.70;99.90;;;18.71;100.00;98298.44;4998570;28;20463;-77
2022/06/16 06:36:53;;;;;;;8.80;3.03;;;17.80;99.90;;;18.77;100.00;98296.72;4993425;28;20476;-77
2022/06/16 06:39:23;;;;;;;4.10;2.77;;;17.80;99.90;;;18.81;100.00;98300.53;4997542;28;20487;-77
2022/06/16 06:41:55;;;;;;;3.40;3.07;;;17.90;99.90;;;18.87;100.00;98303.03;4996289;28;20475;-77
2022/06/16 06:44:25;;;;;;;8.00;3.30;;;17.90;99.90;;;18.94;100.00;98300.25;4996563;28;20500;-77
2022/06/16 06:46:54;;;;;;;3.83;2.97;;;18.00;99.90;;;19.00;100.00;98302.78;4995931;28;20474;-77
2022/06/16 06:49:24;;;;;;;8.50;2.73;;;18.10;99.90;;;19.08;100.00;98298.94;4999285;28;20476;-77
2022/06/16 06:51:55;;;;;;;5.60;3.50;;;18.20;99.90;;;19.15;100.00;98310.22;4995951;28;20482;-78
2022/06/16 06:54:25;;;;;;;4.87;3.10;;;18.30;99.90;;;19.22;100.00;98297.66;4999602;28;20976;-77
2022/06/16 06:56:56;;;;;;;15.77;3.20;;;18.40;99.90;;;19.31;100.00;98309.47;4997110;28;20537;-77
2022/06/16 06:59:26;;;;;;;8.40;3.10;;;18.50;99.90;;;19.38;100.00;98304.84;4996597;28;20558;-77
2022/06/16 07:01:56;;;;;;;3.97;2.70;;;18.50;99.90;;;19.48;100.00;98306.91;4995371;28;20491;-77
2022/06/16 07:04:27;;;;;;;5.87;2.50;;;18.70;99.90;;;19.55;100.00;98303.06;4998988;28;20483;-77
2022/06/16 07:06:56;;;;;;;5.40;2.90;;;18.70;99.70;;;19.63;100.00;98311.69;4995060;28;20957;-77
2022/06/16 07:09:28;;;;;;;6.80;3.23;;;18.80;99.80;;;19.70;91.22;98317.66;4996723;28;20466;-77
2022/06/16 07:11:59;;;;;;;6.00;3.10;;;19.00;97.40;;;19.78;92.01;98317.28;4995435;28;20459;-77
2022/06/16 07:14:29;;;;;;;6.53;2.27;;;19.10;97.70;;;19.87;90.11;98318.47;4995366;28;20510;-77
2022/06/16 07:17:00;;;;;;;3.57;2.73;;;19.20;97.10;;;19.94;89.07;98319.94;4999414;28;21062;-77
2022/06/16 07:19:33;;;;;;;9.93;3.00;;;19.20;97.00;;;20.06;76.12;98336.59;4997801;28;20581;-77
2022/06/16 07:22:04;;;;;;;8.53;2.70;;;19.40;94.00;;;20.18;72.17;98333.88;4996685;28;20895;-77
2022/06/16 07:24:36;;;;;;;5.50;2.60;;;19.50;93.30;;;20.29;66.48;98341.00;4995410;28;20522;-77
2022/06/16 07:27:08;;;;;;;3.87;2.40;;;19.60;91.80;;;20.39;65.53;98343.81;4994083;28;20463;-77
2022/06/16 07:29:38;;;;;;;2.63;2.00;;;19.70;91.90;;;20.47;64.52;98347.91;4997387;28;20977;-77
2022/06/16 07:32:13;;;;;;;5.73;2.60;;;19.80;91.40;;;20.55;64.72;98348.28;4994790;28;20474;-77
2022/06/16 07:34:44;;;;;;;4.97;2.90;;;19.80;91.80;;;20.71;58.56;98353.84;4996679;28;20465;-78
2022/06/16 07:37:15;;;;;;;4.27;2.80;;;20.10;90.00;;;20.75;61.15;98354.97;4994385;28;20467;-77
2022/06/16 07:39:44;;;;;;;3.47;2.43;;;20.00;90.80;;;20.81;61.67;98351.31;4996342;28;20550;-77
2022/06/16 07:42:14;;;;;;;14.13;2.47;;;20.00;90.90;;;20.84;63.13;98356.16;4996007;28;20957;-76
2022/06/16 07:44:46;;;;;;;4.70;2.70;;;20.10;91.80;;;20.89;64.40;98357.03;5000817;28;20818;-77
2022/06/16 07:47:15;;;;;;;4.77;2.33;;;20.10;91.70;;;20.92;65.05;98366.38;4996964;28;20507;-77
2022/06/16 07:49:48;;;;;;;4.60;2.70;;;20.20;92.10;;;21.00;65.09;98363.25;4998051;28;20474;-77
2022/06/16 07:52:19;;;;;;;6.93;2.50;;;20.20;92.10;;;21.02;65.59;98366.50;5000484;28;20463;-77
2022/06/16 07:54:49;;;;;;;7.30;2.30;;;20.20;92.00;;;21.07;63.56;98370.03;4998159;28;20558;-77
2022/06/16 07:57:23;;;;;;;6.37;3.33;;;20.30;91.40;;;21.12;63.33;98371.97;4995916;28;20467;-86
2022/06/16 07:59:59;;;;;;;15.50;7.30;;;20.40;91.20;;;21.15;63.53;98368.81;4996728;28;20486;-76
2022/06/16 08:02:29;;;;;;;7.43;2.67;;;20.40;91.30;;;21.23;63.15;98378.25;4998478;28;20463;-77
2022/06/16 08:05:00;;;;;;;6.47;2.57;;;20.50;91.40;;;21.29;63.75;98382.56;4998486;28;20506;-76
2022/06/16 08:07:29;;;;;;;3.13;2.50;;;20.50;91.70;;;21.33;61.20;98384.50;4996517;28;20802;-77
2022/06/16 08:09:59;;;;;;;5.07;2.37;;;20.60;90.50;;;21.39;62.50;98391.47;4996900;28;20896;-77
2022/06/16 08:12:31;;;;;;;7.87;3.00;;;20.70;91.70;;;21.43;60.82;98389.94;4997391;28;21009;-77
2022/06/16 08:15:01;;;;;;;5.73;2.77;;;20.80;90.90;;;21.46;59.14;98389.44;4999136;28;20500;-77
2022/06/16 08:17:35;;;;;;;3.60;2.50;;;20.80;90.20;;;21.55;58.40;98387.94;4996918;28;20466;-77
2022/06/16 08:20:06;;;;;;;7.63;2.97;;;21.00;90.10;;;21.62;58.60;98392.28;4996397;28;20482;-78
2022/06/16 08:22:37;;;;;;;47.00;22.80;;;20.90;90.40;;;21.63;60.13;98380.56;5000410;28;20471;-78
2022/06/16 08:25:10;;;;;;;6.23;3.00;;;20.90;91.00;;;21.67;58.40;98387.00;4996900;28;20485;-77
2022/06/16 08:27:43;;;;;;;5.97;3.17;;;20.90;90.10;;;21.72;58.27;98389.72;4994607;28;20467;-78
2022/06/16 08:30:17;;;;;;;6.20;2.70;;;21.00;90.20;;;21.77;58.43;98395.09;4995368;28;20479;-78
2022/06/16 08:32:52;;;;;;;4.97;2.70;;;21.10;90.30;;;21.81;57.89;98382.91;4998128;28;20458;-79
2022/06/16 08:35:21;;;;;;;4.00;2.20;;;21.00;90.10;;;21.83;58.97;98388.78;4997859;28;20485;-78
2022/06/16 08:37:52;;;;;;;5.83;2.80;;;21.10;90.60;;;21.86;58.21;98388.28;4998036;28;20455;-78
2022/06/16 08:40:24;;;;;;;7.50;2.70;;;21.20;90.30;;;21.89;59.20;98388.59;4998467;28;20563;-78
2022/06/16 08:43:09;;;;;;;4.37;2.83;;;21.20;90.70;;;21.92;58.00;98389.97;5000300;28;20497;-78
2022/06/16 08:45:47;;;;;;;6.40;2.60;;;21.20;89.80;;;21.94;57.75;98395.84;4996538;28;21097;-78
2022/06/16 08:48:35;;;;;;;7.03;3.30;;;21.20;89.70;;;21.97;58.54;98384.69;5001681;28;20463;-88
2022/06/16 08:51:14;;;;;;;7.00;3.57;;;21.20;90.40;;;22.00;58.72;98386.84;5003160;28;20448;-78
2022/06/16 08:54:11;;;;;;;4.70;2.50;;;21.30;90.10;;;22.03;58.56;98397.00;5001437;28;20518;-78
2022/06/16 08:56:52;;;;;;;3.30;2.20;;;21.30;90.60;;;22.09;57.28;98393.34;5002480;28;20455;-78
2022/06/16 08:59:37;;;;;;;4.77;2.23;;;21.30;88.50;;;22.08;56.42;98386.38;5001086;28;20901;-78
2022/06/16 09:02:12;;;;;;;9.67;2.63;;;21.30;89.50;;;22.10;53.95;98402.94;4999346;28;20474;-78
2022/06/16 09:04:50;;;;;;;6.67;2.23;;;21.50;87.00;;;22.13;55.16;98399.75;4995871;28;21587;-78
2022/06/16 09:07:38;;;;;;;13.70;7.90;;;21.50;88.90;;;22.20;53.68;98404.88;5001746;28;20467;-79
2022/06/16 09:10:27;;;;;;;6.20;2.97;;;21.40;87.30;;;22.25;54.59;98407.59;4998523;28;20958;-78
2022/06/16 09:13:47;;;;;;;4.00;2.20;;;21.50;88.00;;;22.30;55.06;98404.97;4999138;28;20467;-78
2022/06/16 09:16:33;;;;;;;10.70;2.57;;;21.60;88.80;;;22.32;53.04;98408.22;4998510;28;20463;-78
2022/06/16 09:19:25;;;;;;;6.07;2.70;;;21.60;86.90;;;22.34;53.26;98416.75;4999446;28;20478;-79
2022/06/16 09:22:30;;;;;;;5.20;2.70;;;21.60;87.40;;;22.40;53.17;98415.72;4997450;28;20985;-77
2022/06/16 09:25:24;;;;;;;13.70;7.30;;;21.60;86.80;;;22.44;53.78;98417.63;5000025;28;20522;-78
2022/06/16 09:28:02;;;;;;;10.47;2.10;;;21.70;87.00;;;22.53;52.96;98415.28;5001610;28;20968;-78
2022/06/16 09:30:39;;;;;;;30.13;16.00;;;21.70;87.10;;;22.58;53.30;98410.81;5000561;28;20456;-88
2022/06/16 09:33:16;;;;;;;4.80;3.00;;;21.80;87.30;;;22.62;55.10;98421.78;4997233;28;20977;-77
2022/06/16 09:35:53;;;;;;;3.87;1.97;;;21.90;88.90;;;22.64;54.05;98418.84;4996205;28;20482;-77
2022/06/16 09:38:32;;;;;;;17.50;7.93;;;21.90;88.30;;;22.69;53.59;98414.41;4998933;28;20482;-87
2022/06/16 09:42:32;;;;;;;24.93;12.50;;;22.00;87.50;;;22.74;53.58;98427.75;4995962;28;20502;-78
2022/06/16 09:44:09;;;;;;;10.80;2.67;;;22.00;87.90;;;22.78;54.03;98428.03;4995340;28;20471;-78
2022/06/16 09:46:49;;;;;;;6.20;2.60;;;22.00;88.20;;;22.76;52.18;98424.84;4999509;28;20467;-78
2022/06/16 09:49:27;;;;;;;3.67;1.97;;;22.10;86.40;;;22.76;54.15;98436.31;4995450;28;20471;-78
2022/06/16 09:52:25;;;;;;;4.13;2.20;;;22.00;89.10;;;22.80;53.29;98441.94;4997797;28;20566;-78
2022/06/16 09:55:02;;;;;;;3.33;2.10;;;22.00;87.30;;;22.86;52.10;98438.25;4999816;28;20568;-78
2022/06/16 09:57:43;;;;;;;6.20;2.53;;;22.10;86.30;;;22.90;52.10;98442.81;4999211;28;20805;-78
2022/06/16 10:00:18;;;;;;;4.97;2.30;;;22.20;86.30;;;22.99;51.70;98443.94;5000537;28;20479;-78
2022/06/16 10:02:53;;;;;;;4.00;2.20;;;22.20;86.00;;;23.05;51.12;98452.78;4999600;28;20447;-78
2022/06/16 10:05:39;;;;;;;4.30;2.23;;;22.30;85.30;;;23.07;51.41;98464.00;5001404;28;20877;-78
2022/06/16 10:08:20;;;;;;;16.63;9.03;;;22.40;85.90;;;23.12;51.71;98457.91;5004555;28;20459;-78
2022/06/16 10:10:58;;;;;;;5.17;2.47;;;22.40;86.40;;;23.15;51.32;98470.72;4997974;28;20471;-78
2022/06/16 10:13:35;;;;;;;6.10;2.03;;;22.40;85.50;;;23.17;51.25;98471.28;4997680;28;20525;-77
2022/06/16 10:16:12;;;;;;;40.50;20.47;;;22.40;85.40;;;23.24;51.23;98478.00;4997555;28;20462;-78
2022/06/16 10:18:43;;;;;;;8.60;3.50;;;22.50;86.10;;;23.29;51.34;98483.34;4997023;28;20478;-78
2022/06/16 10:21:16;;;;;;;9.10;2.00;;;22.60;86.40;;;23.32;51.79;98480.19;5001330;28;20494;-78
2022/06/16 10:23:52;;;;;;;5.00;2.70;;;22.50;86.50;;;23.35;52.03;98486.88;5000750;28;20976;-78
2022/06/16 10:26:24;;;;;;;6.20;2.13;;;22.60;87.40;;;23.38;52.95;98481.81;4999304;28;20494;-78
2022/06/16 10:29:19;;;;;;;6.80;2.50;;;22.60;88.00;;;23.40;50.43;98497.56;5000479;28;21023;-78
2022/06/16 10:31:51;;;;;;;8.83;2.30;;;22.70;85.10;;;23.44;50.41;98488.81;5001774;28;20840;-77
2022/06/16 10:34:30;;;;;;;10.20;2.30;;;22.70;85.40;;;23.48;51.09;98492.56;5000497;28;20541;-78
2022/06/16 10:37:13;;;;;;;3.40;2.10;;;22.80;86.30;;;23.49;50.25;98488.03;5001358;28;20477;-78
2022/06/16 10:39:48;;;;;;;4.73;2.30;;;22.90;85.00;;;23.53;50.89;98497.94;5001519;28;20455;-78
2022/06/16 10:42:25;;;;;;;3.03;2.37;;;22.90;85.90;;;23.60;50.89;98492.38;4998596;28;20508;-77
2022/06/16 10:45:00;;;;;;;2.70;2.27;;;23.00;85.90;;;23.64;49.79;98492.66;4999917;28;21008;-78
2022/06/16 10:47:35;;;;;;;3.20;2.10;;;23.10;84.60;;;23.69;50.29;98487.34;4999478;28;20814;-78
2022/06/16 10:50:08;;;;;;;6.50;2.50;;;23.10;85.10;;;23.74;51.38;98484.69;5001751;28;20463;-78
2022/06/16 10:52:42;;;;;;;4.77;2.50;;;23.00;86.60;;;23.77;50.21;98492.19;5001522;28;20560;-78
2022/06/16 10:55:23;;;;;;;6.87;2.27;;;23.10;85.10;;;23.79;50.01;98487.38;4998734;28;20446;-78
2022/06/16 10:58:01;;;;;;;12.70;2.30;;;23.00;84.30;;;23.84;50.79;98490.06;5001397;28;20950;-78
2022/06/16 11:00:37;;;;;;;6.10;2.30;;;23.10;86.00;;;23.88;49.38;98493.84;4997709;28;20486;-78
2022/06/16 11:03:18;;;;;;;4.63;2.23;;;23.20;84.10;;;23.95;48.34;98494.41;4999414;28;20467;-78